Metar z połowy godziny Komunikat METAR ze strony awiacja.imgw.pl Metar G30 EPLL METAR EPLL 200230Z 08001KT CAVOK 16/14 Q1016 =